Beards Fork, West Virginia
Current Conditions -  °F | °C
As of 4:51 PM on Sunday 25 Jan 2015 (Local Time) from KBKW Reporting Station
Clear Clear  
Wind Chill:   Ceiling: Unl
Heat Index:   Visibility: 10mi
Dew Point: -1°   Wind: 10mph
Humidity: 62%   Direction: 160°SSE
Pressure: 29.7"   Gusts: NA
Location:  38.096°N, 81.2492°W
Report Text: KBKW 252151Z AUTO 16009KT 10SM CLR 06/M01 A2970 RMK AO2 SLP073 T00611006
Loading
Personal Weather Stations






























Interactive Weather Map New forecast layout! Learn more

10-Day Weather Forecast

Advertisements
Track Severe Weather on mobile